createdAt,value
2018-04-29T00:01:37.462Z,58.10
2018-04-29T00:04:03.748Z,58.10
2018-04-29T00:06:29.858Z,58.30
2018-04-29T00:08:55.961Z,58.30
2018-04-29T00:11:22.814Z,58.50
2018-04-29T00:13:49.658Z,58.30
2018-04-29T00:16:16.554Z,58.10
2018-04-29T00:18:42.643Z,58.10
2018-04-29T00:21:08.784Z,58.10
2018-04-29T00:23:34.902Z,58.30
2018-04-29T00:26:00.995Z,58.70
2018-04-29T00:28:27.091Z,59.00
2018-04-29T00:30:53.169Z,58.80
2018-04-29T00:33:19.990Z,59.70
2018-04-29T00:35:46.114Z,59.70
2018-04-29T00:38:12.187Z,59.90
2018-04-29T00:40:39.005Z,61.00
2018-04-29T00:43:05.103Z,60.90
2018-04-29T00:45:31.167Z,61.00
2018-04-29T00:47:57.295Z,61.00
2018-04-29T00:50:23.408Z,61.70
2018-04-29T00:52:50.231Z,62.90
2018-04-29T00:55:16.370Z,62.80
2018-04-29T00:57:42.665Z,63.80
2018-04-29T01:00:08.808Z,64.10
2018-04-29T01:02:34.978Z,65.80
2018-04-29T01:05:01.093Z,66.30
2018-04-29T01:07:27.200Z,66.90
2018-04-29T01:09:53.278Z,68.10
2018-04-29T01:12:19.444Z,68.20
2018-04-29T01:14:45.522Z,68.70
2018-04-29T01:17:11.596Z,69.00
2018-04-29T01:19:37.707Z,69.40
2018-04-29T01:22:03.787Z,69.50
2018-04-29T01:24:29.878Z,71.00
2018-04-29T01:26:55.972Z,71.30
2018-04-29T01:29:22.070Z,72.50
2018-04-29T01:31:48.244Z,72.10
2018-04-29T01:34:14.313Z,74.60
2018-04-29T01:36:40.429Z,73.40
2018-04-29T01:39:06.515Z,72.90
2018-04-29T01:41:32.768Z,72.50
2018-04-29T01:43:58.866Z,72.70
2018-04-29T01:46:24.943Z,72.70
2018-04-29T01:48:51.044Z,72.20
2018-04-29T01:51:17.111Z,71.10
2018-04-29T01:53:43.190Z,70.30
2018-04-29T01:56:09.290Z,69.10
2018-04-29T01:58:35.390Z,67.40
2018-04-29T02:01:02.223Z,66.90
2018-04-29T02:03:28.322Z,66.90
2018-04-29T02:05:54.398Z,66.50
2018-04-29T02:08:20.531Z,66.40
2018-04-29T02:10:46.606Z,66.50
2018-04-29T02:13:12.728Z,66.50
2018-04-29T02:15:39.602Z,65.80
2018-04-29T02:18:05.679Z,65.80
2018-04-29T02:20:31.787Z,65.60
2018-04-29T02:22:57.904Z,66.10
2018-04-29T02:25:24.006Z,66.40
2018-04-29T02:27:50.119Z,68.10
2018-04-29T02:30:16.193Z,69.70
2018-04-29T02:32:43.023Z,70.20
2018-04-29T02:35:09.135Z,70.70
2018-04-29T02:37:35.228Z,71.20
2018-04-29T02:40:02.080Z,72.30
2018-04-29T02:42:28.935Z,72.70
2018-04-29T02:44:55.752Z,72.00
2018-04-29T02:47:21.929Z,71.20
2018-04-29T02:49:48.836Z,70.50
2018-04-29T02:52:14.898Z,70.00
2018-04-29T02:54:40.992Z,69.40
2018-04-29T02:57:07.086Z,68.70
2018-04-29T02:59:33.918Z,67.80
2018-04-29T03:02:00.008Z,67.80
2018-04-29T03:04:26.115Z,68.10
2018-04-29T03:06:52.233Z,68.50
2018-04-29T03:09:18.300Z,69.10
2018-04-29T03:11:45.113Z,68.20
2018-04-29T03:14:11.339Z,68.10
2018-04-29T03:16:37.403Z,68.50
2018-04-29T03:19:03.509Z,68.30
2018-04-29T03:21:29.597Z,69.80
2018-04-29T03:23:55.699Z,69.80
2018-04-29T03:26:21.804Z,70.40
2018-04-29T03:28:47.870Z,71.60
2018-04-29T03:31:13.988Z,71.80
2018-04-29T03:33:40.046Z,72.10
2018-04-29T03:36:06.133Z,73.00
2018-04-29T03:38:32.235Z,74.50
2018-04-29T03:40:58.319Z,73.90
2018-04-29T03:43:25.139Z,74.70
2018-04-29T03:45:51.254Z,74.70
2018-04-29T03:48:17.337Z,74.50
2018-04-29T03:50:44.164Z,75.70
2018-04-29T03:53:10.252Z,75.70
2018-04-29T03:55:36.332Z,76.10
2018-04-29T04:01:15.793Z,77.40
2018-04-29T04:03:51.937Z,78.10
2018-04-29T04:06:18.757Z,79.90
2018-04-29T04:08:44.876Z,79.90
2018-04-29T04:11:11.004Z,78.60
2018-04-29T04:13:37.088Z,77.60
2018-04-29T04:16:03.216Z,76.60
2018-04-29T04:18:29.327Z,75.70
2018-04-29T04:20:55.406Z,75.70
2018-04-29T04:23:21.465Z,74.90
2018-04-29T04:25:47.578Z,75.00
2018-04-29T04:28:13.658Z,73.60
2018-04-29T04:30:39.725Z,72.80
2018-04-29T04:33:05.836Z,71.80
2018-04-29T04:35:31.903Z,72.40
2018-04-29T04:37:57.974Z,71.70
2018-04-29T04:40:24.854Z,71.60
2018-04-29T04:42:50.950Z,71.50
2018-04-29T04:45:17.041Z,70.70
2018-04-29T04:47:43.138Z,69.70
2018-04-29T04:50:09.950Z,70.00
2018-04-29T04:52:36.026Z,69.90
2018-04-29T04:55:02.876Z,69.80
2018-04-29T04:57:28.952Z,69.40
2018-04-29T04:59:55.034Z,70.00
2018-04-29T05:02:21.144Z,70.00
2018-04-29T05:04:47.225Z,70.40
2018-04-29T05:07:13.329Z,71.10
2018-04-29T05:09:39.413Z,72.10
2018-04-29T05:12:06.253Z,72.10
2018-04-29T05:14:32.342Z,72.10
2018-04-29T05:16:58.468Z,73.00
2018-04-29T05:19:24.943Z,72.60
2018-04-29T05:21:51.029Z,71.80
2018-04-29T05:24:17.863Z,68.10
2018-04-29T05:26:43.958Z,67.90
2018-04-29T05:29:10.055Z,64.70
2018-04-29T05:31:36.926Z,61.90
2018-04-29T05:34:03.003Z,61.90
2018-04-29T05:36:29.086Z,61.80
2018-04-29T05:38:55.928Z,59.30
2018-04-29T05:41:22.004Z,59.30
2018-04-29T05:43:48.117Z,58.00
2018-04-29T05:46:14.948Z,57.10
2018-04-29T05:48:41.031Z,57.10
2018-04-29T05:51:07.161Z,56.50
2018-04-29T05:53:33.238Z,56.40
2018-04-29T05:55:59.345Z,56.10
2018-04-29T05:58:25.465Z,55.60
2018-04-29T06:00:52.284Z,54.30
2018-04-29T06:03:18.406Z,54.40
2018-04-29T06:05:44.521Z,53.40
2018-04-29T06:08:10.685Z,52.50
2018-04-29T06:10:36.754Z,52.10
2018-04-29T06:13:02.842Z,51.40
2018-04-29T06:15:28.939Z,52.20
2018-04-29T06:17:55.785Z,50.60
2018-04-29T06:20:21.960Z,50.60
2018-04-29T06:22:48.746Z,47.70
2018-04-29T06:25:14.818Z,47.70
2018-04-29T06:27:41.685Z,44.70
2018-04-29T06:30:08.509Z,44.40
2018-04-29T06:32:34.662Z,44.40
2018-04-29T06:35:00.735Z,44.30
2018-04-29T06:37:26.801Z,44.10
2018-04-29T06:39:52.912Z,43.20
2018-04-29T06:42:19.005Z,42.60
2018-04-29T06:44:45.849Z,41.20
2018-04-29T06:47:11.960Z,41.20
2018-04-29T06:49:38.034Z,42.80
2018-04-29T06:52:04.132Z,44.30
2018-04-29T06:54:30.237Z,44.40
2018-04-29T06:56:56.332Z,41.60
2018-04-29T06:59:22.432Z,40.20
2018-04-29T07:01:48.546Z,40.40
2018-04-29T07:04:15.393Z,41.80
2018-04-29T07:06:41.520Z,41.80
2018-04-29T07:09:07.631Z,43.10
2018-04-29T07:11:33.716Z,43.80
2018-04-29T07:13:59.833Z,43.80
2018-04-29T07:16:26.070Z,45.00
2018-04-29T07:18:52.184Z,45.40
2018-04-29T07:21:18.266Z,45.80
2018-04-29T07:23:45.169Z,45.90
2018-04-29T07:26:11.409Z,45.80
2018-04-29T07:28:37.547Z,46.70
2018-04-29T07:31:03.640Z,46.30
2018-04-29T07:33:30.456Z,44.30
2018-04-29T07:35:56.611Z,44.30
2018-04-29T07:38:23.436Z,40.20
2018-04-29T07:40:49.509Z,40.80
2018-04-29T07:43:15.682Z,40.70
2018-04-29T07:45:41.781Z,38.70
2018-04-29T07:48:07.854Z,37.50
2018-04-29T07:50:33.955Z,36.30
2018-04-29T07:53:00.055Z,37.40
2018-04-29T07:55:26.152Z,37.50
2018-04-29T07:57:52.262Z,38.80
2018-04-29T08:00:18.352Z,38.20
2018-04-29T08:02:44.463Z,37.90
2018-04-29T08:05:11.318Z,35.50
2018-04-29T08:07:38.158Z,34.70
2018-04-29T08:10:04.295Z,34.70
2018-04-29T08:12:31.141Z,35.60
2018-04-29T08:14:57.238Z,35.50
2018-04-29T08:17:23.389Z,34.90
2018-04-29T08:19:49.508Z,34.30
2018-04-29T08:22:15.639Z,35.80
2018-04-29T08:24:41.747Z,35.60
2018-04-29T08:27:08.588Z,35.90
2018-04-29T08:29:34.694Z,35.90
2018-04-29T08:32:00.763Z,37.10
2018-04-29T08:34:26.885Z,37.80
2018-04-29T08:36:52.993Z,36.20
2018-04-29T08:39:19.083Z,37.90
2018-04-29T08:41:45.191Z,39.10
2018-04-29T08:44:11.275Z,40.00
2018-04-29T08:46:38.109Z,41.80
2018-04-29T08:49:05.007Z,41.10
2018-04-29T08:51:31.082Z,40.80
2018-04-29T08:53:57.193Z,39.80
2018-04-29T08:56:23.323Z,39.30
2018-04-29T08:58:49.461Z,36.40
2018-04-29T09:01:15.572Z,35.80
2018-04-29T09:03:42.453Z,31.10
2018-04-29T09:06:08.552Z,31.10
2018-04-29T09:08:34.696Z,28.80
2018-04-29T09:11:01.512Z,27.80
2018-04-29T09:13:27.628Z,27.70
2018-04-29T09:15:53.725Z,28.70
2018-04-29T09:18:19.860Z,29.00
2018-04-29T09:20:46.776Z,27.50
2018-04-29T09:23:12.859Z,27.50
2018-04-29T09:25:39.746Z,28.90
2018-04-29T09:28:05.854Z,28.90
2018-04-29T09:30:32.676Z,27.90
2018-04-29T09:32:58.879Z,27.90
2018-04-29T09:35:24.946Z,26.90
2018-04-29T09:37:51.059Z,26.90
2018-04-29T09:40:17.193Z,26.60
2018-04-29T09:42:43.299Z,26.70
2018-04-29T09:45:10.104Z,24.80
2018-04-29T09:47:36.210Z,24.90
2018-04-29T09:50:02.311Z,26.10
2018-04-29T09:52:28.443Z,25.70
2018-04-29T09:54:54.550Z,26.70
2018-04-29T09:57:20.643Z,26.10
2018-04-29T09:59:47.525Z,26.00
2018-04-29T10:02:13.696Z,25.90
2018-04-29T10:04:39.799Z,24.60
2018-04-29T10:07:06.076Z,24.40
2018-04-29T10:09:32.359Z,25.20
2018-04-29T10:11:59.332Z,23.90
2018-04-29T10:14:25.447Z,23.90
2018-04-29T10:16:51.551Z,24.70
2018-04-29T10:19:17.635Z,23.80
2018-04-29T10:21:44.510Z,25.70
2018-04-29T10:24:10.634Z,25.70
2018-04-29T10:26:37.458Z,24.00
2018-04-29T10:29:03.576Z,24.00
2018-04-29T10:31:29.704Z,23.50
2018-04-29T10:33:55.794Z,23.40
2018-04-29T10:36:22.635Z,23.90
2018-04-29T10:38:48.775Z,23.80
2018-04-29T10:41:14.869Z,23.30
2018-04-29T10:43:41.026Z,22.80
2018-04-29T10:46:07.148Z,23.60
2018-04-29T10:48:33.280Z,24.20
2018-04-29T10:50:59.374Z,23.00
2018-04-29T10:53:26.240Z,25.00
2018-04-29T10:55:52.368Z,25.00
2018-04-29T10:58:19.187Z,24.50
2018-04-29T11:00:45.318Z,24.40
2018-04-29T11:03:11.502Z,25.90
2018-04-29T11:05:37.670Z,25.00
2018-04-29T11:08:03.796Z,24.80
2018-04-29T11:10:29.908Z,24.60
2018-04-29T11:12:56.032Z,23.80
2018-04-29T11:15:22.167Z,23.30
2018-04-29T11:17:55.288Z,24.10
2018-04-29T11:20:22.146Z,24.00
2018-04-29T11:22:48.291Z,23.90
2018-04-29T11:25:15.118Z,24.70
2018-04-29T11:27:41.236Z,24.80
2018-04-29T11:30:07.550Z,25.10
2018-04-29T11:32:33.719Z,25.10
2018-04-29T11:34:59.838Z,24.90
2018-04-29T11:37:25.910Z,22.10
2018-04-29T11:39:51.996Z,23.10
2018-04-29T11:42:33.118Z,23.70
2018-04-29T11:44:59.186Z,24.50
2018-04-29T11:47:25.273Z,24.40
2018-04-29T15:24:44.376Z,23.90
2018-04-29T15:27:10.495Z,29.70
2018-04-29T15:29:36.607Z,30.60
2018-04-29T15:32:03.409Z,31.50
2018-04-29T15:34:29.532Z,31.10
2018-04-29T15:36:55.607Z,31.30
2018-04-29T15:39:21.678Z,31.30
2018-04-29T15:41:48.564Z,31.20
2018-04-29T15:44:14.652Z,31.20
2018-04-29T15:46:40.753Z,31.60
2018-04-29T15:49:06.916Z,31.80
2018-04-29T15:51:33.008Z,32.60
2018-04-29T15:53:59.120Z,32.60
2018-04-29T15:56:25.997Z,34.00
2018-04-29T15:58:52.136Z,34.00
2018-04-29T16:01:18.230Z,34.60
2018-04-29T16:03:44.377Z,35.00
2018-04-29T16:06:10.483Z,35.20
2018-04-29T16:08:36.570Z,35.80
2018-04-29T16:11:03.452Z,35.70
2018-04-29T16:13:29.583Z,35.70
2018-04-29T16:15:55.702Z,36.40
2018-04-29T16:18:21.807Z,36.30
2018-04-29T16:20:47.915Z,36.30
2018-04-29T16:23:14.008Z,36.60
2018-04-29T16:25:40.183Z,36.90
2018-04-29T16:28:06.298Z,37.30
2018-04-29T16:30:33.184Z,37.60
2018-04-29T16:32:59.315Z,37.60
2018-04-29T16:35:25.432Z,37.70
2018-04-29T16:37:51.655Z,38.10
2018-04-29T16:40:17.750Z,38.20
2018-04-29T16:42:43.902Z,38.40
2018-04-29T16:45:10.026Z,38.20
2018-04-29T16:47:36.160Z,38.40
2018-04-29T16:50:02.256Z,38.40
2018-04-29T16:52:29.188Z,38.60
2018-04-29T16:54:55.361Z,38.60
2018-04-29T16:57:22.205Z,38.70
2018-04-29T16:59:49.046Z,39.00
2018-04-29T17:02:15.161Z,39.00
2018-04-29T17:04:41.247Z,39.20
2018-04-29T17:07:07.413Z,39.00
2018-04-29T17:09:33.632Z,39.00
2018-04-29T17:11:59.683Z,39.10
2018-04-29T17:14:25.782Z,39.10
2018-04-29T17:16:51.947Z,39.10
2018-04-29T17:19:18.111Z,39.30
2018-04-29T17:21:44.187Z,39.70
2018-04-29T17:24:10.298Z,39.90
2018-04-29T17:26:38.184Z,40.90
2018-04-29T17:29:05.225Z,40.40
2018-04-29T17:31:31.692Z,40.40
2018-04-29T17:33:57.988Z,40.70
2018-04-29T17:36:25.941Z,41.00
2018-04-29T17:38:52.361Z,41.20
2018-04-29T17:41:18.878Z,41.60
2018-04-29T17:43:44.978Z,41.90
2018-04-29T17:46:11.812Z,42.60
2018-04-29T17:48:37.924Z,42.60
2018-04-29T17:51:04.051Z,43.00
2018-04-29T17:53:30.169Z,43.20
2018-04-29T17:55:56.264Z,43.60
2018-04-29T17:58:22.382Z,43.90
2018-04-29T18:00:48.492Z,44.40
2018-04-29T18:03:14.593Z,44.70
2018-04-29T18:05:41.466Z,45.50
2018-04-29T18:08:08.350Z,45.70
2018-04-29T18:10:34.427Z,45.60
2018-04-29T18:13:00.548Z,45.90
2018-04-29T18:15:26.672Z,46.30
2018-04-29T18:17:52.790Z,46.70
2018-04-29T18:20:18.874Z,46.90
2018-04-29T18:22:45.748Z,47.50
2018-04-29T18:25:11.939Z,47.50
2018-04-29T18:27:38.094Z,47.60
2018-04-29T18:30:04.157Z,47.90
2018-04-29T18:32:30.236Z,48.20
2018-04-29T18:34:56.382Z,48.60
2018-04-29T18:37:22.918Z,48.70
2018-04-29T18:39:49.002Z,49.10
2018-04-29T18:42:15.877Z,49.70
2018-04-29T18:44:41.961Z,49.70
2018-04-29T18:47:08.265Z,49.80
2018-04-29T18:49:34.364Z,50.20
2018-04-29T18:52:00.436Z,50.30
2018-04-29T18:54:26.518Z,50.70
2018-04-29T18:56:52.718Z,50.80
2018-04-29T18:59:18.798Z,50.90
2018-04-29T19:01:44.864Z,50.90
2018-04-29T19:04:10.996Z,50.90
2018-04-29T19:06:37.837Z,50.80
2018-04-29T19:09:04.650Z,51.20
2018-04-29T19:11:30.764Z,51.10
2018-04-29T19:13:56.854Z,51.30
2018-04-29T19:16:22.910Z,51.70
2018-04-29T19:18:49.018Z,51.70
2018-04-29T19:21:15.069Z,51.90
2018-04-29T19:23:41.157Z,52.10
2018-04-29T19:26:07.259Z,52.30
2018-04-29T19:28:33.346Z,52.50
2018-04-29T19:30:59.436Z,52.50
2018-04-29T19:33:26.700Z,52.90
2018-04-29T19:35:52.799Z,52.60
2018-04-29T19:38:18.912Z,52.70
2018-04-29T19:40:45.085Z,53.00
2018-04-29T19:43:11.173Z,53.20
2018-04-29T19:45:37.978Z,53.40
2018-04-29T19:48:04.119Z,53.50
2018-04-29T19:50:30.298Z,53.60
2018-04-29T19:52:57.164Z,54.10
2018-04-29T19:55:23.283Z,54.10
2018-04-29T19:57:50.157Z,54.60
2018-04-29T20:00:16.263Z,54.60
2018-04-29T20:02:42.412Z,54.90
2018-04-29T20:05:09.247Z,55.10
2018-04-29T20:07:35.302Z,55.10
2018-04-29T20:10:01.803Z,55.20
2018-04-29T20:12:27.893Z,55.50
2018-04-29T20:14:54.776Z,56.40
2018-04-29T20:17:20.874Z,55.70
2018-04-29T20:19:46.972Z,55.70
2018-04-29T20:22:13.084Z,55.30
2018-04-29T20:24:39.187Z,55.30
2018-04-29T20:27:05.312Z,55.50
2018-04-29T20:29:31.444Z,55.80
2018-04-29T20:31:57.510Z,55.70
2018-04-29T20:34:24.458Z,56.40
2018-04-29T20:36:50.575Z,56.00
2018-04-29T20:39:16.668Z,56.30
2018-04-29T20:41:42.819Z,56.50
2018-04-29T20:44:08.963Z,56.70
2018-04-29T20:46:35.100Z,56.90
2018-04-29T20:49:01.319Z,57.30
2018-04-29T20:51:27.437Z,57.30
2018-04-29T20:53:54.340Z,57.90
2018-04-29T20:56:20.462Z,57.90
2018-04-29T20:58:46.550Z,58.20
2018-04-29T21:01:12.623Z,58.40
2018-04-29T21:03:38.786Z,58.80
2018-04-29T21:06:04.862Z,59.00
2018-04-29T21:08:30.945Z,59.50
2018-04-29T21:10:57.075Z,59.30
2018-04-29T21:13:23.887Z,60.00
2018-04-29T21:15:50.010Z,60.00
2018-04-29T21:18:16.218Z,60.40
2018-04-29T21:20:42.614Z,60.90
2018-04-29T21:23:09.522Z,61.60
2018-04-29T21:25:35.628Z,61.50
2018-04-29T21:28:02.450Z,62.40
2018-04-29T21:30:28.557Z,62.40
2018-04-29T21:32:54.665Z,62.80
2018-04-29T21:35:21.471Z,63.30
2018-04-29T21:37:47.531Z,63.40
2018-04-29T21:40:13.636Z,63.50
2018-04-29T21:42:39.776Z,64.10
2018-04-29T21:45:05.847Z,65.30
2018-04-29T21:47:31.994Z,64.70
2018-04-29T21:49:58.075Z,64.90
2018-04-29T21:52:24.189Z,65.10
2018-04-29T21:54:51.019Z,65.80
2018-04-29T21:57:17.236Z,65.70
2018-04-29T21:59:43.322Z,65.70
2018-04-29T22:02:09.486Z,65.80
2018-04-29T22:04:35.568Z,66.30
2018-04-29T22:07:02.404Z,67.20
2018-04-29T22:09:28.485Z,67.10
2018-04-29T22:11:55.286Z,67.80
2018-04-29T22:14:21.377Z,67.70
2018-04-29T22:16:48.225Z,67.80
2018-04-29T22:19:15.187Z,68.40
2018-04-29T22:21:42.058Z,68.90
2018-04-29T22:24:08.167Z,68.90
2018-04-29T22:26:34.320Z,69.10
2018-04-29T22:29:01.142Z,70.40
2018-04-29T22:31:27.269Z,70.40
2018-04-29T22:33:53.326Z,71.00
2018-04-29T22:36:19.445Z,71.00
2018-04-29T22:38:45.537Z,71.60
2018-04-29T22:41:11.825Z,72.20
2018-04-29T22:43:37.986Z,72.60
2018-04-29T22:46:04.167Z,73.10
2018-04-29T22:48:30.303Z,72.90
2018-04-29T22:50:56.511Z,73.40
2018-04-29T22:53:22.585Z,74.00
2018-04-29T22:55:48.854Z,73.90
2018-04-29T22:58:14.964Z,73.70
2018-04-29T23:00:41.084Z,74.30
2018-04-29T23:03:08.019Z,74.90
2018-04-29T23:05:34.231Z,74.90
2018-04-29T23:08:00.777Z,75.30
2018-04-29T23:21:52.104Z,76.10
2018-04-29T23:24:18.211Z,76.10
2018-04-29T23:26:45.081Z,76.50
2018-04-29T23:29:11.932Z,77.00
2018-04-29T23:31:38.783Z,77.00
2018-04-29T23:34:05.620Z,77.50
2018-04-29T23:36:31.813Z,77.40
2018-04-29T23:38:57.929Z,77.50
2018-04-29T23:41:24.076Z,77.30
2018-04-29T23:43:50.183Z,77.40
2018-04-29T23:46:16.278Z,77.10
2018-04-29T23:48:42.548Z,77.10
2018-04-29T23:51:08.645Z,77.40
2018-04-29T23:53:34.749Z,77.50
2018-04-29T23:56:01.582Z,78.00
2018-04-29T23:58:27.691Z,78.00
